Pine Neck, New York
Current Conditions -  °F | °C
As of 7:53 PM on Saturday 20 Dec 2014 (Local Time) from KFOK Reporting Station
Overcast Overcast  
Wind Chill:   Ceiling: 2400
Heat Index:   Visibility: 10mi
Dew Point: -3°   Wind: 3mph
Humidity: 82%   Direction: 320°NW
Pressure: 30.29"   Gusts: NA
Location:  40.9692°N, 72.306°W
Report Text: KFOK 210053Z AUTO 32003KT 10SM OVC024 00/M03 A3029 RMK AO2 SLP256 T00001028 TSNO
Loading
Personal Weather Stations






























Interactive Weather Map New forecast layout! Learn more

10-Day Weather Forecast

Advertisements
Track Severe Weather on mobile